createdAt,value
2022-12-25T00:00:22.608Z,100787.13
2022-12-25T00:04:09.840Z,100786.90
2022-12-25T00:07:36.838Z,100784.05
2022-12-25T00:11:06.551Z,100786.39
2022-12-25T00:14:31.839Z,100796.48
2022-12-25T00:17:58.768Z,100800.14
2022-12-25T00:21:25.876Z,100801.95
2022-12-25T00:24:52.893Z,100800.59
2022-12-25T00:28:19.993Z,100798.61
2022-12-25T00:31:46.923Z,100798.67
2022-12-25T00:35:13.996Z,100793.34
2022-12-25T00:38:42.191Z,100793.98
2022-12-25T00:42:24.155Z,100794.05
2022-12-25T00:45:59.667Z,100797.27
2022-12-25T00:49:27.016Z,100804.66
2022-12-25T00:52:53.852Z,100806.85
2022-12-25T00:56:20.798Z,100809.55
2022-12-25T00:59:47.814Z,100806.48
2022-12-25T01:03:15.356Z,100807.26
2022-12-25T01:06:42.425Z,100803.80
2022-12-25T01:10:24.113Z,100810.48
2022-12-25T01:13:50.928Z,100815.88
2022-12-25T01:17:17.940Z,100817.60
2022-12-25T01:20:44.828Z,100825.91
2022-12-25T01:24:12.037Z,100827.45
2022-12-25T01:27:38.981Z,100832.80
2022-12-25T01:31:06.880Z,100840.60
2022-12-25T01:34:34.139Z,100846.70
2022-12-25T01:38:01.146Z,100847.73
2022-12-25T01:41:28.231Z,100848.30
2022-12-25T01:45:27.838Z,100855.41
2022-12-25T01:48:54.312Z,100853.19
2022-12-25T01:52:25.200Z,100852.14
2022-12-25T01:55:55.592Z,100851.98
2022-12-25T01:59:27.156Z,100853.73
2022-12-25T02:02:54.456Z,100861.36
2022-12-25T02:06:22.159Z,100859.81
2022-12-25T02:09:49.573Z,100857.39
2022-12-25T02:13:19.193Z,100858.42
2022-12-25T02:16:56.700Z,100857.75
2022-12-25T02:20:42.696Z,100867.47
2022-12-25T02:24:27.960Z,100869.04
2022-12-25T02:28:10.982Z,100870.16
2022-12-25T02:31:44.003Z,100862.96
2022-12-25T02:35:18.125Z,100860.38
2022-12-25T02:39:00.586Z,100852.74
2022-12-25T02:43:04.515Z,100847.64
2022-12-25T02:46:50.951Z,100852.29
2022-12-25T02:50:37.058Z,100853.50
2022-12-25T02:54:26.749Z,100860.83
2022-12-25T02:58:13.199Z,100866.63
2022-12-25T03:02:00.274Z,100870.84
2022-12-25T03:05:47.370Z,100875.02
2022-12-25T03:09:36.952Z,100879.35
2022-12-25T03:13:09.694Z,100877.00
2022-12-25T03:16:53.099Z,100877.36
2022-12-25T03:20:38.323Z,100876.66
2022-12-25T03:24:23.036Z,100878.60
2022-12-25T03:27:54.098Z,100879.15
2022-12-25T03:31:27.947Z,100877.46
2022-12-25T03:35:21.676Z,100883.61
2022-12-25T03:39:26.271Z,100889.91
2022-12-25T03:43:18.819Z,100895.10
2022-12-25T03:47:09.515Z,100889.06
2022-12-25T03:50:58.033Z,100889.79
2022-12-25T03:54:49.927Z,100888.80
2022-12-25T03:58:46.007Z,100894.95
2022-12-25T04:02:30.872Z,100891.86
2022-12-25T04:06:11.650Z,100893.98
2022-12-25T04:09:56.337Z,100888.96
2022-12-25T04:13:41.019Z,100892.10
2022-12-25T04:17:25.642Z,100901.64
2022-12-25T04:21:10.046Z,100912.08
2022-12-25T04:24:54.775Z,100918.52
2022-12-25T04:28:39.635Z,100921.35
2022-12-25T04:32:24.493Z,100919.34
2022-12-25T04:36:10.365Z,100921.11
2022-12-25T04:39:37.237Z,100920.97
2022-12-25T04:43:04.171Z,100926.05
2022-12-25T04:46:31.175Z,100926.79
2022-12-25T04:49:58.155Z,100933.73
2022-12-25T04:53:25.252Z,100932.21
2022-12-25T04:56:52.354Z,100941.61
2022-12-25T05:00:20.977Z,100950.06
2022-12-25T05:03:47.988Z,100951.33
2022-12-25T05:07:15.144Z,100951.63
2022-12-25T05:10:43.605Z,100943.34
2022-12-25T05:14:10.447Z,100946.98
2022-12-25T05:17:38.141Z,100945.44
2022-12-25T05:21:05.687Z,100949.30
2022-12-25T05:24:32.764Z,100952.80
2022-12-25T05:27:59.919Z,100958.93
2022-12-25T05:31:26.983Z,100967.77
2022-12-25T05:34:54.207Z,100968.11
2022-12-25T05:38:21.062Z,100980.77
2022-12-25T05:41:48.105Z,100987.68
2022-12-25T05:45:15.442Z,100994.64
2022-12-25T05:48:42.504Z,100998.95
2022-12-25T05:52:09.485Z,101003.11
2022-12-25T05:55:38.856Z,101015.96
2022-12-25T05:59:05.815Z,101017.70
2022-12-25T06:02:32.823Z,101021.72
2022-12-25T06:06:00.038Z,101021.55
2022-12-25T06:09:27.067Z,101022.41
2022-12-25T06:12:54.544Z,101028.35
2022-12-25T06:16:21.688Z,101032.13
2022-12-25T06:19:48.723Z,101033.36
2022-12-25T06:23:15.606Z,101037.21
2022-12-25T06:26:42.571Z,101043.48
2022-12-25T06:30:11.934Z,101047.44
2022-12-25T06:33:39.054Z,101056.65
2022-12-25T06:37:06.136Z,101054.41
2022-12-25T06:40:32.985Z,101058.92
2022-12-25T06:44:02.430Z,101063.08
2022-12-25T06:47:29.414Z,101066.02
2022-12-25T06:50:56.551Z,101078.34
2022-12-25T06:54:23.547Z,101078.53
2022-12-25T06:57:50.386Z,101072.12
2022-12-25T07:01:20.636Z,101070.73
2022-12-25T07:04:48.752Z,101079.19
2022-12-25T07:08:15.641Z,101081.70
2022-12-25T07:11:42.492Z,101083.04
2022-12-25T07:15:11.326Z,101082.48
2022-12-25T07:18:38.175Z,101078.98
2022-12-25T07:22:04.981Z,101077.90
2022-12-25T07:25:37.069Z,101080.39
2022-12-25T07:29:04.463Z,101075.27
2022-12-25T07:32:33.913Z,101071.73
2022-12-25T07:36:01.021Z,101073.05
2022-12-25T07:39:27.953Z,101076.23
2022-12-25T07:42:55.167Z,101076.82
2022-12-25T07:46:23.505Z,101076.91
2022-12-25T07:49:50.669Z,101074.07
2022-12-25T07:53:17.515Z,101078.88
2022-12-25T07:56:44.466Z,101083.48
2022-12-25T08:00:13.612Z,101090.27
2022-12-25T08:03:40.947Z,101093.64
2022-12-25T08:07:08.050Z,101093.76
2022-12-25T08:10:34.881Z,101093.38
2022-12-25T08:14:01.791Z,101097.56
2022-12-25T08:17:29.031Z,101103.07
2022-12-25T08:20:55.861Z,101103.90
2022-12-25T08:24:23.352Z,101102.80
2022-12-25T08:27:50.201Z,101108.85
2022-12-25T08:31:22.892Z,101115.73
2022-12-25T08:34:50.489Z,101118.36
2022-12-25T08:38:17.651Z,101125.14
2022-12-25T08:41:44.456Z,101130.51
2022-12-25T08:45:13.419Z,101140.46
2022-12-25T08:48:42.757Z,101140.27
2022-12-25T08:52:09.937Z,101142.27
2022-12-25T08:55:36.842Z,101144.63
2022-12-25T08:59:04.063Z,101143.76
2022-12-25T09:02:32.175Z,101139.40
2022-12-25T09:06:02.912Z,101136.75
2022-12-25T09:09:30.541Z,101132.41
2022-12-25T09:12:57.391Z,101138.74
2022-12-25T09:16:25.374Z,101144.98
2022-12-25T09:19:52.167Z,101149.05
2022-12-25T09:23:19.005Z,101151.08
2022-12-25T09:26:45.942Z,101157.09
2022-12-25T09:30:14.175Z,101156.41
2022-12-25T09:33:41.453Z,101161.96
2022-12-25T09:37:08.383Z,101158.22
2022-12-25T09:40:36.085Z,101154.96
2022-12-25T09:44:07.282Z,101153.52
2022-12-25T09:47:38.351Z,101156.52
2022-12-25T09:51:10.046Z,101158.71
2022-12-25T09:54:45.942Z,101154.80
2022-12-25T09:58:14.473Z,101159.79
2022-12-25T10:01:51.671Z,101153.30
2022-12-25T10:05:45.493Z,101144.83
2022-12-25T10:09:27.661Z,101146.63
2022-12-25T10:13:03.535Z,101140.23
2022-12-25T10:16:43.146Z,101136.77
2022-12-25T10:20:19.595Z,101131.20
2022-12-25T10:23:51.170Z,101126.80
2022-12-25T10:27:21.481Z,101119.27
2022-12-25T10:30:51.003Z,101113.58
2022-12-25T10:34:21.195Z,101113.70
2022-12-25T10:37:55.185Z,101107.71
2022-12-25T10:41:48.418Z,101109.44
2022-12-25T10:45:15.273Z,101111.02
2022-12-25T10:48:45.757Z,101108.02
2022-12-25T10:52:23.850Z,101104.09
2022-12-25T10:56:02.304Z,101104.58
2022-12-25T10:59:31.086Z,101107.80
2022-12-25T11:02:58.943Z,101107.88
2022-12-25T11:06:29.289Z,101108.73
2022-12-25T11:10:04.600Z,101114.05
2022-12-25T11:13:34.544Z,101116.64
2022-12-25T11:17:11.427Z,101113.91
2022-12-25T11:20:45.407Z,101118.41
2022-12-25T11:24:22.287Z,101117.49
2022-12-25T11:28:00.700Z,101116.84
2022-12-25T11:31:37.345Z,101113.61
2022-12-25T11:35:11.579Z,101117.97
2022-12-25T11:38:38.408Z,101128.54
2022-12-25T11:42:14.486Z,101130.17
2022-12-25T11:45:47.943Z,101128.27
2022-12-25T11:49:19.217Z,101115.48
2022-12-25T11:52:48.625Z,101111.13
2022-12-25T11:56:18.398Z,101111.94
2022-12-25T11:59:53.172Z,101111.58
2022-12-25T12:03:26.993Z,101106.73
2022-12-25T12:06:58.233Z,101092.26
2022-12-25T12:10:34.015Z,101093.29
2022-12-25T12:14:08.574Z,101090.15
2022-12-25T12:17:35.775Z,101082.86
2022-12-25T12:21:06.447Z,101086.02
2022-12-25T12:24:38.813Z,101092.84
2022-12-25T12:28:06.085Z,101097.40
2022-12-25T12:31:43.797Z,101096.02
2022-12-25T12:35:18.294Z,101090.12
2022-12-25T12:38:47.185Z,101081.67
2022-12-25T12:42:21.142Z,101077.88
2022-12-25T12:45:55.711Z,101079.65
2022-12-25T12:49:26.402Z,101073.82
2022-12-25T12:52:53.282Z,101076.70
2022-12-25T12:56:21.495Z,101075.88
2022-12-25T12:59:48.761Z,101065.95
2022-12-25T13:03:41.128Z,101055.44
2022-12-25T13:07:21.716Z,101051.29
2022-12-25T13:10:52.581Z,101060.94
2022-12-25T13:14:22.106Z,101060.52
2022-12-25T13:17:50.192Z,101059.48
2022-12-25T13:21:22.033Z,101064.97
2022-12-25T13:24:58.628Z,101058.96
2022-12-25T13:28:30.768Z,101050.64
2022-12-25T13:31:58.430Z,101051.59
2022-12-25T13:35:26.293Z,101049.10
2022-12-25T13:38:56.265Z,101050.41
2022-12-25T13:42:26.606Z,101050.81
2022-12-25T13:45:57.796Z,101053.60
2022-12-25T13:49:25.821Z,101043.15
2022-12-25T13:52:53.555Z,101030.59
2022-12-25T13:56:20.553Z,101026.55
2022-12-25T13:59:47.927Z,101027.06
2022-12-25T14:03:23.074Z,101026.44
2022-12-25T14:06:51.491Z,101021.16
2022-12-25T14:10:18.462Z,101028.71
2022-12-25T14:13:48.171Z,101030.55
2022-12-25T14:17:13.715Z,101024.39
2022-12-25T14:20:43.762Z,101022.85
2022-12-25T14:24:16.184Z,101028.05
2022-12-25T14:27:49.460Z,101028.42
2022-12-25T14:31:17.490Z,101031.02
2022-12-25T14:34:46.571Z,101039.23
2022-12-25T14:38:21.795Z,101046.95
2022-12-25T14:41:54.709Z,101044.61
2022-12-25T14:45:31.686Z,101051.10
2022-12-25T14:49:07.181Z,101052.20
2022-12-25T14:52:40.488Z,101054.21
2022-12-25T14:56:09.515Z,101043.35
2022-12-25T14:59:36.401Z,101031.67
2022-12-25T15:03:04.527Z,101026.67
2022-12-25T15:06:33.443Z,101021.61
2022-12-25T15:10:36.620Z,101014.16
2022-12-25T15:13:47.537Z,101017.84
2022-12-25T15:17:24.560Z,101014.39
2022-12-25T15:20:53.417Z,101007.23
2022-12-25T15:24:20.345Z,100999.47
2022-12-25T15:27:47.247Z,101005.71
2022-12-25T15:31:21.848Z,101018.73
2022-12-25T15:34:50.159Z,101040.34
2022-12-25T15:38:17.403Z,101029.46
2022-12-25T15:42:01.908Z,101025.91
2022-12-25T15:45:31.469Z,101017.79
2022-12-25T15:48:58.741Z,101025.44
2022-12-25T15:52:25.778Z,101035.73
2022-12-25T15:55:54.182Z,101027.12
2022-12-25T15:59:22.412Z,101010.70
2022-12-25T16:02:50.341Z,100997.54
2022-12-25T16:06:19.543Z,100996.67
2022-12-25T16:09:47.155Z,100995.98
2022-12-25T16:13:14.301Z,100992.48
2022-12-25T16:16:41.993Z,100996.27
2022-12-25T16:20:11.012Z,100992.88
2022-12-25T16:23:38.021Z,100992.20
2022-12-25T16:27:05.655Z,100995.73
2022-12-25T16:30:32.938Z,100991.64
2022-12-25T16:33:59.840Z,100984.93
2022-12-25T16:37:27.640Z,100989.46
2022-12-25T16:40:58.613Z,100970.66
2022-12-25T16:44:25.841Z,100971.86
2022-12-25T16:47:52.780Z,100967.88
2022-12-25T16:51:21.718Z,100958.77
2022-12-25T16:54:49.425Z,100968.33
2022-12-25T16:58:16.316Z,100963.51
2022-12-25T17:01:43.937Z,100950.07
2022-12-25T17:05:12.344Z,100945.23
2022-12-25T17:08:39.334Z,100937.20
2022-12-25T17:12:07.119Z,100924.77
2022-12-25T17:15:33.928Z,100930.16
2022-12-25T17:19:04.130Z,100934.86
2022-12-25T17:22:31.208Z,100931.73
2022-12-25T17:26:00.917Z,100920.69
2022-12-25T17:29:28.036Z,100909.16
2022-12-25T17:32:55.299Z,100901.85
2022-12-25T17:36:24.385Z,100916.04
2022-12-25T17:39:51.362Z,100916.62
2022-12-25T17:43:20.978Z,100905.08
2022-12-25T17:46:48.528Z,100889.23
2022-12-25T17:50:15.651Z,100892.61
2022-12-25T17:53:44.521Z,100892.84
2022-12-25T17:57:11.550Z,100887.35
2022-12-25T18:00:38.737Z,100877.49
2022-12-25T18:04:06.758Z,100870.41
2022-12-25T18:07:33.770Z,100868.00
2022-12-25T18:11:05.177Z,100859.55
2022-12-25T18:14:32.175Z,100862.98
2022-12-25T18:17:59.278Z,100866.78
2022-12-25T18:21:26.847Z,100864.36
2022-12-25T18:24:53.782Z,100852.22
2022-12-25T18:28:21.138Z,100833.69
2022-12-25T18:31:48.652Z,100828.12
2022-12-25T18:35:15.835Z,100831.19
2022-12-25T18:38:43.184Z,100834.65
2022-12-25T18:42:42.320Z,100825.81
2022-12-25T18:46:10.151Z,100818.70
2022-12-25T18:49:37.490Z,100815.95
2022-12-25T18:53:05.641Z,100798.61
2022-12-25T18:56:32.565Z,100796.20
2022-12-25T18:59:59.819Z,100789.31
2022-12-25T19:03:26.944Z,100790.04
2022-12-25T19:06:54.585Z,100780.73
2022-12-25T19:10:21.641Z,100770.21
2022-12-25T19:13:49.132Z,100765.92
2022-12-25T19:17:16.557Z,100753.81
2022-12-25T19:20:43.767Z,100732.55
2022-12-25T19:24:10.951Z,100730.12
2022-12-25T19:27:37.892Z,100723.02
2022-12-25T19:31:07.548Z,100728.95
2022-12-25T19:34:33.020Z,100727.96
2022-12-25T19:38:00.177Z,100723.47
2022-12-25T19:41:28.566Z,100711.73
2022-12-25T19:44:55.917Z,100698.95
2022-12-25T19:48:22.784Z,100686.17
2022-12-25T19:51:49.895Z,100684.34
2022-12-25T19:55:20.155Z,100684.01
2022-12-25T19:58:47.377Z,100681.09
2022-12-25T20:02:14.373Z,100688.90
2022-12-25T20:05:45.248Z,100681.13
2022-12-25T20:09:17.917Z,100671.66
2022-12-25T20:12:47.648Z,100667.38
2022-12-25T20:16:15.159Z,100657.38
2022-12-25T20:19:42.207Z,100656.08
2022-12-25T20:23:09.573Z,100654.05
2022-12-25T20:26:36.778Z,100638.72
2022-12-25T20:30:03.660Z,100635.44
2022-12-25T20:33:30.835Z,100634.07
2022-12-25T20:36:57.698Z,100632.38
2022-12-25T20:40:24.712Z,100631.23
2022-12-25T20:43:52.151Z,100634.54
2022-12-25T20:47:19.468Z,100632.73
2022-12-25T20:50:46.544Z,100636.13
2022-12-25T20:54:14.906Z,100642.40
2022-12-25T20:57:41.795Z,100645.06
2022-12-25T21:01:10.755Z,100637.67
2022-12-25T21:04:37.803Z,100631.31
2022-12-25T21:08:04.625Z,100624.60
2022-12-25T21:11:31.740Z,100621.75
2022-12-25T21:14:58.733Z,100629.23
2022-12-25T21:18:27.881Z,100619.77
2022-12-25T21:21:54.933Z,100617.06
2022-12-25T21:25:21.817Z,100612.22
2022-12-25T21:28:49.866Z,100608.29
2022-12-25T21:32:34.695Z,100604.47
2022-12-25T21:36:09.074Z,100598.60
2022-12-25T21:39:36.077Z,100604.86
2022-12-25T21:43:03.085Z,100599.20
2022-12-25T21:46:30.451Z,100588.17
2022-12-25T21:50:15.533Z,100586.64
2022-12-25T21:53:42.431Z,100578.17
2022-12-25T21:57:10.206Z,100575.74
2022-12-25T22:00:37.285Z,100572.09
2022-12-25T22:04:07.161Z,100556.13
2022-12-25T22:07:34.184Z,100537.19
2022-12-25T22:11:03.866Z,100513.03
2022-12-25T22:14:51.804Z,100504.85
2022-12-25T22:18:38.106Z,100497.13
2022-12-25T22:22:05.108Z,100496.91
2022-12-25T22:25:32.217Z,100493.43
2022-12-25T22:28:59.281Z,100500.34
2022-12-25T22:32:26.299Z,100497.43
2022-12-25T22:36:01.437Z,100492.80
2022-12-25T22:39:29.231Z,100495.77
2022-12-25T22:42:57.736Z,100493.65
2022-12-25T22:46:24.867Z,100485.28
2022-12-25T22:49:51.958Z,100484.88
2022-12-25T22:53:18.990Z,100480.32
2022-12-25T22:56:48.076Z,100473.66
2022-12-25T23:00:16.265Z,100454.71
2022-12-25T23:03:43.181Z,100455.80
2022-12-25T23:07:10.984Z,100449.59
2022-12-25T23:10:37.965Z,100446.88
2022-12-25T23:14:22.855Z,100442.05
2022-12-25T23:18:07.785Z,100422.56
2022-12-25T23:21:52.393Z,100424.01
2022-12-25T23:25:36.867Z,100435.01
2022-12-25T23:29:21.822Z,100421.05
2022-12-25T23:32:48.857Z,100420.23
2022-12-25T23:36:15.871Z,100410.38
2022-12-25T23:39:42.786Z,100397.05
2022-12-25T23:43:09.953Z,100398.45
2022-12-25T23:46:37.195Z,100392.29
2022-12-25T23:50:04.549Z,100389.73
2022-12-25T23:53:31.658Z,100402.11
2022-12-25T23:56:59.357Z,100398.41
